sensor_id;sensor_type;location;lat;lon;timestamp;temperature;humidity
66740;DHT22;53653;52.188;8.602;2023-04-01T00:02:18;9.40;95.52
66740;DHT22;53653;52.188;8.602;2023-04-01T00:04:44;9.37;95.64
66740;DHT22;53653;52.188;8.602;2023-04-01T00:07:10;9.40;95.43
66740;DHT22;53653;52.188;8.602;2023-04-01T00:09:36;9.37;95.55
66740;DHT22;53653;52.188;8.602;2023-04-01T00:12:03;9.40;95.43
66740;DHT22;53653;52.188;8.602;2023-04-01T00:14:28;9.34;95.41
66740;DHT22;53653;52.188;8.602;2023-04-01T00:16:55;9.37;95.27
66740;DHT22;53653;52.188;8.602;2023-04-01T00:19:21;9.39;95.12
66740;DHT22;53653;52.188;8.602;2023-04-01T00:21:46;9.39;94.83
66740;DHT22;53653;52.188;8.602;2023-04-01T00:24:13;9.36;94.86
66740;DHT22;53653;52.188;8.602;2023-04-01T00:26:38;9.40;94.89
66740;DHT22;53653;52.188;8.602;2023-04-01T00:29:04;9.39;94.64
66740;DHT22;53653;52.188;8.602;2023-04-01T00:31:30;9.39;94.55
66740;DHT22;53653;52.188;8.602;2023-04-01T00:33:56;9.43;94.40
66740;DHT22;53653;52.188;8.602;2023-04-01T00:36:22;9.41;94.48
66740;DHT22;53653;52.188;8.602;2023-04-01T00:38:49;9.41;94.34
66740;DHT22;53653;52.188;8.602;2023-04-01T00:41:16;9.43;94.25
66740;DHT22;53653;52.188;8.602;2023-04-01T00:43:43;9.40;94.14
66740;DHT22;53653;52.188;8.602;2023-04-01T00:46:09;9.46;93.68
66740;DHT22;53653;52.188;8.602;2023-04-01T00:48:42;9.46;93.48
66740;DHT22;53653;52.188;8.602;2023-04-01T00:51:14;9.53;93.49
66740;DHT22;53653;52.188;8.602;2023-04-01T00:53:45;9.50;92.93
66740;DHT22;53653;52.188;8.602;2023-04-01T00:56:15;9.46;93.13
66740;DHT22;53653;52.188;8.602;2023-04-01T00:58:46;9.46;93.23
66740;DHT22;53653;52.188;8.602;2023-04-01T01:01:13;9.48;92.95
66740;DHT22;53653;52.188;8.602;2023-04-01T01:03:38;9.43;93.21
66740;DHT22;53653;52.188;8.602;2023-04-01T01:11:32;9.34;93.91
66740;DHT22;53653;52.188;8.602;2023-04-01T01:14:34;9.34;93.72
66740;DHT22;53653;52.188;8.602;2023-04-01T01:17:26;9.34;93.85
66740;DHT22;53653;52.188;8.602;2023-04-01T01:22:52;9.24;94.32
66740;DHT22;53653;52.188;8.602;2023-04-01T01:30:42;9.22;94.21
66740;DHT22;53653;52.188;8.602;2023-04-01T01:33:22;9.20;94.29
66740;DHT22;53653;52.188;8.602;2023-04-01T01:35:56;9.18;94.29
66740;DHT22;53653;52.188;8.602;2023-04-01T01:38:27;9.20;94.39
66740;DHT22;53653;52.188;8.602;2023-04-01T01:40:59;9.22;94.40
66740;DHT22;53653;52.188;8.602;2023-04-01T01:43:30;9.18;94.44
66740;DHT22;53653;52.188;8.602;2023-04-01T01:46:01;9.19;94.66
66740;DHT22;53653;52.188;8.602;2023-04-01T01:48:29;9.15;94.71
66740;DHT22;53653;52.188;8.602;2023-04-01T01:50:55;9.13;94.92
66740;DHT22;53653;52.188;8.602;2023-04-01T01:53:21;9.11;95.05
66740;DHT22;53653;52.188;8.602;2023-04-01T01:55:47;9.06;95.04
66740;DHT22;53653;52.188;8.602;2023-04-01T02:00:51;9.08;94.87
66740;DHT22;53653;52.188;8.602;2023-04-01T02:03:20;9.09;94.88
66740;DHT22;53653;52.188;8.602;2023-04-01T02:05:46;9.11;94.56
66740;DHT22;53653;52.188;8.602;2023-04-01T02:08:17;9.11;94.44
66740;DHT22;53653;52.188;8.602;2023-04-01T02:10:49;9.15;94.20
66740;DHT22;53653;52.188;8.602;2023-04-01T02:13:27;9.16;94.23
66740;DHT22;53653;52.188;8.602;2023-04-01T02:15:58;9.12;94.31
66740;DHT22;53653;52.188;8.602;2023-04-01T02:18:25;9.15;94.32
66740;DHT22;53653;52.188;8.602;2023-04-01T02:20:51;9.12;94.22
66740;DHT22;53653;52.188;8.602;2023-04-01T02:23:17;9.12;94.31
66740;DHT22;53653;52.188;8.602;2023-04-01T02:25:43;9.12;94.15
66740;DHT22;53653;52.188;8.602;2023-04-01T02:28:10;9.20;93.80
66740;DHT22;53653;52.188;8.602;2023-04-01T02:30:39;9.22;93.54
66740;DHT22;53653;52.188;8.602;2023-04-01T02:33:06;9.24;93.54
66740;DHT22;53653;52.188;8.602;2023-04-01T02:35:36;9.24;93.29
66740;DHT22;53653;52.188;8.602;2023-04-01T02:38:02;9.18;93.60
66740;DHT22;53653;52.188;8.602;2023-04-01T02:40:28;9.15;94.00
66740;DHT22;53653;52.188;8.602;2023-04-01T02:42:54;9.08;94.34
66740;DHT22;53653;52.188;8.602;2023-04-01T02:45:19;9.05;94.85
66740;DHT22;53653;52.188;8.602;2023-04-01T02:47:45;9.03;95.10
66740;DHT22;53653;52.188;8.602;2023-04-01T02:50:11;9.05;95.21
66740;DHT22;53653;52.188;8.602;2023-04-01T02:52:36;9.05;95.00
66740;DHT22;53653;52.188;8.602;2023-04-01T02:55:02;8.96;95.20
66740;DHT22;53653;52.188;8.602;2023-04-01T02:57:28;8.98;95.39
66740;DHT22;53653;52.188;8.602;2023-04-01T02:59:54;8.93;95.24
66740;DHT22;53653;52.188;8.602;2023-04-01T03:02:20;8.95;95.32
66740;DHT22;53653;52.188;8.602;2023-04-01T03:04:45;8.92;95.11
66740;DHT22;53653;52.188;8.602;2023-04-01T03:07:11;8.95;95.04
66740;DHT22;53653;52.188;8.602;2023-04-01T03:09:37;8.96;94.82
66740;DHT22;53653;52.188;8.602;2023-04-01T03:12:02;8.99;94.83
66740;DHT22;53653;52.188;8.602;2023-04-01T03:14:30;9.06;94.56
66740;DHT22;53653;52.188;8.602;2023-04-01T03:16:55;9.01;94.33
66740;DHT22;53653;52.188;8.602;2023-04-01T03:19:21;8.99;94.37
66740;DHT22;53653;52.188;8.602;2023-04-01T03:21:46;9.01;94.20
66740;DHT22;53653;52.188;8.602;2023-04-01T03:24:12;9.05;94.19
66740;DHT22;53653;52.188;8.602;2023-04-01T03:26:37;9.06;94.10
66740;DHT22;53653;52.188;8.602;2023-04-01T03:29:03;9.05;94.25
66740;DHT22;53653;52.188;8.602;2023-04-01T03:31:29;9.02;94.24
66740;DHT22;53653;52.188;8.602;2023-04-01T03:33:55;9.03;94.30
66740;DHT22;53653;52.188;8.602;2023-04-01T03:36:22;9.03;94.23
66740;DHT22;53653;52.188;8.602;2023-04-01T03:38:47;9.02;94.33
66740;DHT22;53653;52.188;8.602;2023-04-01T03:41:18;9.02;94.01
66740;DHT22;53653;52.188;8.602;2023-04-01T03:43:44;9.05;93.93
66740;DHT22;53653;52.188;8.602;2023-04-01T03:46:10;9.03;94.08
66740;DHT22;53653;52.188;8.602;2023-04-01T03:48:35;9.02;94.10
66740;DHT22;53653;52.188;8.602;2023-04-01T03:51:01;9.01;94.11
66740;DHT22;53653;52.188;8.602;2023-04-01T03:53:31;9.03;94.37
66740;DHT22;53653;52.188;8.602;2023-04-01T03:56:04;9.03;94.30
66740;DHT22;53653;52.188;8.602;2023-04-01T03:58:29;9.01;94.28
66740;DHT22;53653;52.188;8.602;2023-04-01T04:00:55;9.02;94.42
66740;DHT22;53653;52.188;8.602;2023-04-01T04:03:21;9.02;94.23
66740;DHT22;53653;52.188;8.602;2023-04-01T04:05:47;8.99;94.13
66740;DHT22;53653;52.188;8.602;2023-04-01T04:08:14;9.05;94.07
66740;DHT22;53653;52.188;8.602;2023-04-01T04:10:39;9.02;93.86
66740;DHT22;53653;52.188;8.602;2023-04-01T04:13:06;9.05;93.98
66740;DHT22;53653;52.188;8.602;2023-04-01T04:15:36;9.05;93.95
66740;DHT22;53653;52.188;8.602;2023-04-01T04:18:01;9.05;93.91
66740;DHT22;53653;52.188;8.602;2023-04-01T04:20:27;9.06;93.90
66740;DHT22;53653;52.188;8.602;2023-04-01T04:22:52;9.02;93.91
66740;DHT22;53653;52.188;8.602;2023-04-01T04:25:18;9.02;94.10
66740;DHT22;53653;52.188;8.602;2023-04-01T04:27:43;8.99;94.33
66740;DHT22;53653;52.188;8.602;2023-04-01T04:30:11;9.01;94.38
66740;DHT22;53653;52.188;8.602;2023-04-01T04:32:37;8.96;94.60
66740;DHT22;53653;52.188;8.602;2023-04-01T04:35:03;8.95;94.72
66740;DHT22;53653;52.188;8.602;2023-04-01T04:37:29;8.93;94.77
66740;DHT22;53653;52.188;8.602;2023-04-01T04:39:55;8.91;94.99
66740;DHT22;53653;52.188;8.602;2023-04-01T04:42:20;8.92;94.95
66740;DHT22;53653;52.188;8.602;2023-04-01T04:44:46;8.92;94.84
66740;DHT22;53653;52.188;8.602;2023-04-01T04:47:11;8.89;95.05
66740;DHT22;53653;52.188;8.602;2023-04-01T04:49:37;8.91;95.02
66740;DHT22;53653;52.188;8.602;2023-04-01T04:52:07;8.91;95.08
66740;DHT22;53653;52.188;8.602;2023-04-01T04:54:32;8.91;95.04
66740;DHT22;53653;52.188;8.602;2023-04-01T04:57:00;8.89;94.87
66740;DHT22;53653;52.188;8.602;2023-04-01T04:59:30;8.91;94.82
66740;DHT22;53653;52.188;8.602;2023-04-01T05:02:16;8.86;95.25
66740;DHT22;53653;52.188;8.602;2023-04-01T05:04:41;8.88;95.14
66740;DHT22;53653;52.188;8.602;2023-04-01T05:07:09;8.86;95.11
66740;DHT22;53653;52.188;8.602;2023-04-01T05:09:35;8.88;94.93
66740;DHT22;53653;52.188;8.602;2023-04-01T05:12:02;8.85;94.70
66740;DHT22;53653;52.188;8.602;2023-04-01T05:14:35;8.85;94.70
66740;DHT22;53653;52.188;8.602;2023-04-01T05:17:11;8.86;94.60
66740;DHT22;53653;52.188;8.602;2023-04-01T05:19:37;8.85;94.89
66740;DHT22;53653;52.188;8.602;2023-04-01T05:22:03;8.81;95.02
66740;DHT22;53653;52.188;8.602;2023-04-01T05:24:30;8.84;95.14
66740;DHT22;53653;52.188;8.602;2023-04-01T05:26:56;8.82;95.35
66740;DHT22;53653;52.188;8.602;2023-04-01T05:29:24;8.81;95.04
66740;DHT22;53653;52.188;8.602;2023-04-01T05:31:56;8.81;95.17
66740;DHT22;53653;52.188;8.602;2023-04-01T05:34:21;8.79;95.22
66740;DHT22;53653;52.188;8.602;2023-04-01T05:36:47;8.85;94.79
66740;DHT22;53653;52.188;8.602;2023-04-01T05:39:13;8.85;95.02
66740;DHT22;53653;52.188;8.602;2023-04-01T05:41:39;8.84;95.28
66740;DHT22;53653;52.188;8.602;2023-04-01T05:44:06;8.76;95.24
66740;DHT22;53653;52.188;8.602;2023-04-01T05:46:37;8.78;95.40
66740;DHT22;53653;52.188;8.602;2023-04-01T05:49:23;8.81;95.26
66740;DHT22;53653;52.188;8.602;2023-04-01T05:51:50;8.82;95.30
66740;DHT22;53653;52.188;8.602;2023-04-01T05:54:17;8.82;95.21
66740;DHT22;53653;52.188;8.602;2023-04-01T05:56:44;8.79;95.38
66740;DHT22;53653;52.188;8.602;2023-04-01T05:59:10;8.76;95.58
66740;DHT22;53653;52.188;8.602;2023-04-01T06:01:36;8.75;95.52
66740;DHT22;53653;52.188;8.602;2023-04-01T06:04:02;8.76;95.44
66740;DHT22;53653;52.188;8.602;2023-04-01T06:06:29;8.76;95.43
66740;DHT22;53653;52.188;8.602;2023-04-01T06:09:26;8.81;95.47
66740;DHT22;53653;52.188;8.602;2023-04-01T06:24:58;8.92;94.86
66740;DHT22;53653;52.188;8.602;2023-04-01T06:30:06;8.88;94.92
66740;DHT22;53653;52.188;8.602;2023-04-01T06:35:21;8.93;95.15
66740;DHT22;53653;52.188;8.602;2023-04-01T06:38:17;8.96;94.98
66740;DHT22;53653;52.188;8.602;2023-04-01T06:52:35;9.09;94.82
66740;DHT22;53653;52.188;8.602;2023-04-01T06:55:42;9.09;94.99
66740;DHT22;53653;52.188;8.602;2023-04-01T07:02:02;9.22;94.73
66740;DHT22;53653;52.188;8.602;2023-04-01T07:04:32;9.23;94.56
66740;DHT22;53653;52.188;8.602;2023-04-01T07:07:03;9.27;95.09
66740;DHT22;53653;52.188;8.602;2023-04-01T07:09:37;9.29;95.33
66740;DHT22;53653;52.188;8.602;2023-04-01T07:15:21;9.36;94.94
66740;DHT22;53653;52.188;8.602;2023-04-01T07:18:16;9.40;95.01
66740;DHT22;53653;52.188;8.602;2023-04-01T07:20:41;9.43;94.90
66740;DHT22;53653;52.188;8.602;2023-04-01T07:23:16;9.39;94.79
66740;DHT22;53653;52.188;8.602;2023-04-01T07:25:59;9.44;95.16
66740;DHT22;53653;52.188;8.602;2023-04-01T07:28:45;9.39;94.73
66740;DHT22;53653;52.188;8.602;2023-04-01T07:34:39;9.34;94.79
66740;DHT22;53653;52.188;8.602;2023-04-01T07:37:45;9.39;94.86
66740;DHT22;53653;52.188;8.602;2023-04-01T07:55:04;9.34;94.98
66740;DHT22;53653;52.188;8.602;2023-04-01T07:57:47;9.34;95.01
66740;DHT22;53653;52.188;8.602;2023-04-01T08:00:22;9.27;95.56
66740;DHT22;53653;52.188;8.602;2023-04-01T08:06:07;9.34;95.58
66740;DHT22;53653;52.188;8.602;2023-04-01T08:08:44;9.36;95.75
66740;DHT22;53653;52.188;8.602;2023-04-01T08:15:38;9.40;95.94
66740;DHT22;53653;52.188;8.602;2023-04-01T08:18:37;9.40;95.83
66740;DHT22;53653;52.188;8.602;2023-04-01T08:21:00;9.44;95.57
66740;DHT22;53653;52.188;8.602;2023-04-01T08:23:36;9.51;95.45
66740;DHT22;53653;52.188;8.602;2023-04-01T08:28:58;9.55;95.63
66740;DHT22;53653;52.188;8.602;2023-04-01T08:31:31;9.53;95.79
66740;DHT22;53653;52.188;8.602;2023-04-01T08:34:00;9.48;95.76
66740;DHT22;53653;52.188;8.602;2023-04-01T08:36:34;9.53;96.09
66740;DHT22;53653;52.188;8.602;2023-04-01T08:39:27;9.53;96.14
66740;DHT22;53653;52.188;8.602;2023-04-01T09:00:40;9.44;95.93
66740;DHT22;53653;52.188;8.602;2023-04-01T09:06:02;9.47;96.28
66740;DHT22;53653;52.188;8.602;2023-04-01T09:14:26;9.58;95.76
66740;DHT22;53653;52.188;8.602;2023-04-01T09:17:49;9.67;96.27
66740;DHT22;53653;52.188;8.602;2023-04-01T09:28:51;10.02;95.43
66740;DHT22;53653;52.188;8.602;2023-04-01T09:31:46;10.22;95.13
66740;DHT22;53653;52.188;8.602;2023-04-01T09:34:51;10.35;94.28
66740;DHT22;53653;52.188;8.602;2023-04-01T09:51:18;10.77;93.39
66740;DHT22;53653;52.188;8.602;2023-04-01T09:54:10;10.83;93.61
66740;DHT22;53653;52.188;8.602;2023-04-01T09:59:15;10.63;93.63
66740;DHT22;53653;52.188;8.602;2023-04-01T10:30:27;11.28;92.67
66740;DHT22;53653;52.188;8.602;2023-04-01T10:45:13;11.14;91.87
66740;DHT22;53653;52.188;8.602;2023-04-01T11:21:49;11.51;90.03
66740;DHT22;53653;52.188;8.602;2023-04-01T11:31:05;11.34;93.04
66740;DHT22;53653;52.188;8.602;2023-04-01T11:45:36;11.45;91.95
66740;DHT22;53653;52.188;8.602;2023-04-01T11:56:53;11.83;92.21
66740;DHT22;53653;52.188;8.602;2023-04-01T12:07:53;11.82;90.01
66740;DHT22;53653;52.188;8.602;2023-04-01T12:21:52;12.00;90.42
66740;DHT22;53653;52.188;8.602;2023-04-01T12:24:36;11.98;90.18
66740;DHT22;53653;52.188;8.602;2023-04-01T12:27:35;11.82;89.80
66740;DHT22;53653;52.188;8.602;2023-04-01T12:33:20;11.58;92.10
66740;DHT22;53653;52.188;8.602;2023-04-01T12:41:26;11.49;91.78
66740;DHT22;53653;52.188;8.602;2023-04-01T12:44:29;11.55;91.97
66740;DHT22;53653;52.188;8.602;2023-04-01T12:47:20;11.69;92.77
66740;DHT22;53653;52.188;8.602;2023-04-01T12:55:38;11.65;91.47
66740;DHT22;53653;52.188;8.602;2023-04-01T12:58:21;11.66;93.51
66740;DHT22;53653;52.188;8.602;2023-04-01T13:03:47;11.70;92.64
66740;DHT22;53653;52.188;8.602;2023-04-01T13:15:24;11.82;91.97
66740;DHT22;53653;52.188;8.602;2023-04-01T13:18:14;11.93;91.94
66740;DHT22;53653;52.188;8.602;2023-04-01T13:20:53;11.91;90.87
66740;DHT22;53653;52.188;8.602;2023-04-01T13:36:49;11.66;92.01
66740;DHT22;53653;52.188;8.602;2023-04-01T13:40:43;11.66;91.70
66740;DHT22;53653;52.188;8.602;2023-04-01T13:42:53;11.63;91.59
66740;DHT22;53653;52.188;8.602;2023-04-01T13:45:26;11.80;91.62
66740;DHT22;53653;52.188;8.602;2023-04-01T13:50:37;11.84;90.17
66740;DHT22;53653;52.188;8.602;2023-04-01T13:59:02;11.62;91.44
66740;DHT22;53653;52.188;8.602;2023-04-01T14:12:09;11.24;93.64
66740;DHT22;53653;52.188;8.602;2023-04-01T14:20:17;11.04;94.92
66740;DHT22;53653;52.188;8.602;2023-04-01T14:23:13;10.97;95.80
66740;DHT22;53653;52.188;8.602;2023-04-01T14:26:12;10.87;95.37
66740;DHT22;53653;52.188;8.602;2023-04-01T14:40:27;10.74;96.06
66740;DHT22;53653;52.188;8.602;2023-04-01T14:50:52;10.94;95.95
66740;DHT22;53653;52.188;8.602;2023-04-01T14:55:55;10.84;95.30
66740;DHT22;53653;52.188;8.602;2023-04-01T14:58:23;10.81;95.84
66740;DHT22;53653;52.188;8.602;2023-04-01T15:01:13;10.77;95.56
66740;DHT22;53653;52.188;8.602;2023-04-01T15:04:22;10.80;95.92
66740;DHT22;53653;52.188;8.602;2023-04-01T15:07:35;10.71;95.35
66740;DHT22;53653;52.188;8.602;2023-04-01T15:10:40;10.78;95.93
66740;DHT22;53653;52.188;8.602;2023-04-01T15:18:40;10.68;95.30
66740;DHT22;53653;52.188;8.602;2023-04-01T15:21:16;10.64;95.90
66740;DHT22;53653;52.188;8.602;2023-04-01T15:34:46;10.56;93.87
66740;DHT22;53653;52.188;8.602;2023-04-01T15:53:46;10.88;93.27
66740;DHT22;53653;52.188;8.602;2023-04-01T15:56:25;10.91;93.38
66740;DHT22;53653;52.188;8.602;2023-04-01T15:58:59;10.53;94.16
66740;DHT22;53653;52.188;8.602;2023-04-01T16:07:10;10.06;94.17
66740;DHT22;53653;52.188;8.602;2023-04-01T16:12:33;9.91;94.46
66740;DHT22;53653;52.188;8.602;2023-04-01T16:18:28;9.74;95.24
66740;DHT22;53653;52.188;8.602;2023-04-01T16:21:02;9.65;95.01
66740;DHT22;53653;52.188;8.602;2023-04-01T16:23:40;9.51;94.74
66740;DHT22;53653;52.188;8.602;2023-04-01T16:29:12;9.55;95.32
66740;DHT22;53653;52.188;8.602;2023-04-01T16:31:48;9.47;94.56
66740;DHT22;53653;52.188;8.602;2023-04-01T16:37:21;9.29;94.98
66740;DHT22;53653;52.188;8.602;2023-04-01T16:40:16;9.19;95.48
66740;DHT22;53653;52.188;8.602;2023-04-01T16:42:51;9.13;96.08
66740;DHT22;53653;52.188;8.602;2023-04-01T16:45:32;9.05;96.28
66740;DHT22;53653;52.188;8.602;2023-04-01T17:01:27;8.75;96.51
66740;DHT22;53653;52.188;8.602;2023-04-01T17:04:06;8.68;95.75
66740;DHT22;53653;52.188;8.602;2023-04-01T17:07:17;8.58;95.29
66740;DHT22;53653;52.188;8.602;2023-04-01T17:09:45;8.51;95.50
66740;DHT22;53653;52.188;8.602;2023-04-01T17:15:29;8.51;96.13
66740;DHT22;53653;52.188;8.602;2023-04-01T17:20:46;8.41;95.42
66740;DHT22;53653;52.188;8.602;2023-04-01T17:26:25;8.30;96.11
66740;DHT22;53653;52.188;8.602;2023-04-01T17:29:08;8.27;96.28
66740;DHT22;53653;52.188;8.602;2023-04-01T17:35:04;8.12;95.23
66740;DHT22;53653;52.188;8.602;2023-04-01T17:45:40;8.02;95.86
66740;DHT22;53653;52.188;8.602;2023-04-01T17:48:21;8.02;95.90
66740;DHT22;53653;52.188;8.602;2023-04-01T17:51:14;8.00;95.56
66740;DHT22;53653;52.188;8.602;2023-04-01T17:53:51;7.97;95.90
66740;DHT22;53653;52.188;8.602;2023-04-01T17:56:55;7.96;96.03
66740;DHT22;53653;52.188;8.602;2023-04-01T17:59:32;7.90;95.80
66740;DHT22;53653;52.188;8.602;2023-04-01T18:14:01;7.69;95.05
66740;DHT22;53653;52.188;8.602;2023-04-01T18:16:43;7.58;94.76
66740;DHT22;53653;52.188;8.602;2023-04-01T18:22:41;7.37;95.09
66740;DHT22;53653;52.188;8.602;2023-04-01T18:25:36;7.27;94.98
66740;DHT22;53653;52.188;8.602;2023-04-01T18:31:04;7.20;95.15
66740;DHT22;53653;52.188;8.602;2023-04-01T18:33:42;7.11;94.74
66740;DHT22;53653;52.188;8.602;2023-04-01T18:39:17;7.04;94.63
66740;DHT22;53653;52.188;8.602;2023-04-01T18:52:53;6.97;93.74
66740;DHT22;53653;52.188;8.602;2023-04-01T18:55:40;6.95;93.95
66740;DHT22;53653;52.188;8.602;2023-04-01T19:09:23;6.90;95.14
66740;DHT22;53653;52.188;8.602;2023-04-01T19:28:05;6.68;93.98
66740;DHT22;53653;52.188;8.602;2023-04-01T19:30:42;6.66;94.18
66740;DHT22;53653;52.188;8.602;2023-04-01T19:38:59;6.62;94.96
66740;DHT22;53653;52.188;8.602;2023-04-01T19:44:39;6.55;95.31
66740;DHT22;53653;52.188;8.602;2023-04-01T19:47:24;6.48;94.80
66740;DHT22;53653;52.188;8.602;2023-04-01T19:50:15;6.42;94.98
66740;DHT22;53653;52.188;8.602;2023-04-01T19:52:47;6.41;94.52
66740;DHT22;53653;52.188;8.602;2023-04-01T19:55:30;6.37;94.38
66740;DHT22;53653;52.188;8.602;2023-04-01T19:58:21;6.27;94.60
66740;DHT22;53653;52.188;8.602;2023-04-01T20:00:49;6.27;93.92
66740;DHT22;53653;52.188;8.602;2023-04-01T20:03:54;6.27;94.04
66740;DHT22;53653;52.188;8.602;2023-04-01T20:06:44;6.21;94.12
66740;DHT22;53653;52.188;8.602;2023-04-01T20:15:33;6.18;92.74
66740;DHT22;53653;52.188;8.602;2023-04-01T20:18:02;6.14;92.67
66740;DHT22;53653;52.188;8.602;2023-04-01T20:20:29;6.16;92.91
66740;DHT22;53653;52.188;8.602;2023-04-01T20:26:31;6.22;92.87
66740;DHT22;53653;52.188;8.602;2023-04-01T20:29:23;6.18;92.39
66740;DHT22;53653;52.188;8.602;2023-04-01T20:31:55;6.20;92.78
66740;DHT22;53653;52.188;8.602;2023-04-01T20:34:32;6.18;93.33
66740;DHT22;53653;52.188;8.602;2023-04-01T20:37:38;6.17;93.49
66740;DHT22;53653;52.188;8.602;2023-04-01T20:40:32;6.14;93.52
66740;DHT22;53653;52.188;8.602;2023-04-01T20:45:57;5.97;93.64
66740;DHT22;53653;52.188;8.602;2023-04-01T20:51:27;5.83;93.80
66740;DHT22;53653;52.188;8.602;2023-04-01T21:02:24;5.76;93.73
66740;DHT22;53653;52.188;8.602;2023-04-01T21:13:58;5.63;93.67
66740;DHT22;53653;52.188;8.602;2023-04-01T21:22:18;5.60;93.19
66740;DHT22;53653;52.188;8.602;2023-04-01T21:24:59;5.62;92.96
66740;DHT22;53653;52.188;8.602;2023-04-01T21:27:43;5.59;92.32
66740;DHT22;53653;52.188;8.602;2023-04-01T21:33:23;5.58;93.09
66740;DHT22;53653;52.188;8.602;2023-04-01T21:36:33;5.58;93.46
66740;DHT22;53653;52.188;8.602;2023-04-01T21:55:41;5.18;92.87
66740;DHT22;53653;52.188;8.602;2023-04-01T22:01:11;5.18;93.43
66740;DHT22;53653;52.188;8.602;2023-04-01T22:03:49;5.14;92.61
66740;DHT22;53653;52.188;8.602;2023-04-01T22:17:27;5.08;93.00
66740;DHT22;53653;52.188;8.602;2023-04-01T22:28:12;4.94;93.44
66740;DHT22;53653;52.188;8.602;2023-04-01T22:30:52;4.97;93.40
66740;DHT22;53653;52.188;8.602;2023-04-01T22:33:50;4.88;93.40
66740;DHT22;53653;52.188;8.602;2023-04-01T22:39:09;4.81;92.41
66740;DHT22;53653;52.188;8.602;2023-04-01T22:41:52;4.81;92.75
66740;DHT22;53653;52.188;8.602;2023-04-01T22:55:40;4.73;92.28
66740;DHT22;53653;52.188;8.602;2023-04-01T22:58:13;4.76;92.51
66740;DHT22;53653;52.188;8.602;2023-04-01T23:00:47;4.79;92.89
66740;DHT22;53653;52.188;8.602;2023-04-01T23:03:19;4.74;92.45
66740;DHT22;53653;52.188;8.602;2023-04-01T23:05:52;4.74;92.41
66740;DHT22;53653;52.188;8.602;2023-04-01T23:09:02;4.74;92.06
66740;DHT22;53653;52.188;8.602;2023-04-01T23:11:10;4.74;92.64
66740;DHT22;53653;52.188;8.602;2023-04-01T23:13:43;4.72;92.10
66740;DHT22;53653;52.188;8.602;2023-04-01T23:16:11;4.74;92.43
66740;DHT22;53653;52.188;8.602;2023-04-01T23:18:57;4.70;92.82
66740;DHT22;53653;52.188;8.602;2023-04-01T23:22:06;4.74;92.33
66740;DHT22;53653;52.188;8.602;2023-04-01T23:29:29;4.66;91.96
66740;DHT22;53653;52.188;8.602;2023-04-01T23:31:59;4.59;91.55
66740;DHT22;53653;52.188;8.602;2023-04-01T23:34:35;4.49;91.95
66740;DHT22;53653;52.188;8.602;2023-04-01T23:37:07;4.52;92.34
66740;DHT22;53653;52.188;8.602;2023-04-01T23:39:42;4.52;92.04
66740;DHT22;53653;52.188;8.602;2023-04-01T23:44:45;4.52;92.26
66740;DHT22;53653;52.188;8.602;2023-04-01T23:47:16;4.48;92.67
66740;DHT22;53653;52.188;8.602;2023-04-01T23:49:46;4.42;93.14
66740;DHT22;53653;52.188;8.602;2023-04-01T23:52:57;4.42;92.72
66740;DHT22;53653;52.188;8.602;2023-04-01T23:55:13;4.35;92.49
66740;DHT22;53653;52.188;8.602;2023-04-01T23:57:39;4.18;93.01
